Time;durP1;ratioP1;P1;durP2;ratioP2;P2;SDS_P1;SDS_P2;PMS_P1;PMS_P2;Temp;Humidity;BMP_temperature;BMP_pressure;BME280_temperature;BME280_humidity;BME280_pressure;Samples;Min_cycle;Max_cycle;Signal;HPM_P1;HPM_P2
2021/06/12 00:01:30;;;;;;;4.10;2.72;;;;;;;38.17;39.33;161250.97;1772942;81;21238;-80
2021/06/12 00:04:04;;;;;;;3.00;2.60;;;;;;;38.16;39.29;161248.28;1772849;81;21769;-80
2021/06/12 00:06:36;;;;;;;4.15;2.42;;;;;;;38.11;39.34;161234.91;1772867;81;21243;-80
2021/06/12 00:09:09;;;;;;;6.00;2.65;;;;;;;38.04;39.39;161216.13;1772821;81;21373;-80
2021/06/12 00:11:42;;;;;;;2.58;2.12;;;;;;;38.03;39.39;161213.44;1772935;81;21900;-79
2021/06/12 00:14:14;;;;;;;3.10;2.35;;;;;;;37.75;39.68;161138.41;1772938;81;21182;-80
2021/06/12 00:16:47;;;;;;;4.30;2.30;;;;;;;37.96;39.49;161193.39;1772741;80;21674;-80
2021/06/12 00:19:19;;;;;;;3.47;2.25;;;;;;;37.95;39.44;161192.02;1772826;81;21721;-81
2021/06/12 00:21:52;;;;;;;3.20;2.30;;;;;;;37.93;39.42;161185.34;1772860;81;21221;-80
2021/06/12 00:24:24;;;;;;;2.40;1.92;;;;;;;37.88;39.49;161171.92;1781352;80;21241;-80
2021/06/12 00:26:56;;;;;;;3.98;2.37;;;;;;;37.83;39.50;161159.88;1786625;80;21903;-80
2021/06/12 00:29:29;;;;;;;4.25;1.95;;;;;;;37.84;39.46;161162.55;1769043;79;21152;-81
2021/06/12 00:32:01;;;;;;;2.50;2.10;;;;;;;37.74;39.51;161135.72;1786626;80;21321;-80
2021/06/12 00:34:34;;;;;;;3.60;2.12;;;;;;;37.72;39.51;161129.03;1771500;80;21352;-80
2021/06/12 00:37:07;;;;;;;11.28;3.77;;;;;;;37.74;39.47;161134.34;1755508;82;21217;-81
2021/06/12 00:39:39;;;;;;;3.98;2.65;;;;;;;37.75;39.45;161137.03;1755524;82;21552;-80
2021/06/12 00:42:12;;;;;;;3.62;2.52;;;;;;;37.77;39.38;161142.41;1756131;80;21578;-81
2021/06/12 00:44:44;;;;;;;4.50;2.60;;;;;;;37.72;39.38;161129.03;1756448;80;21272;-80
2021/06/12 00:47:17;;;;;;;2.55;2.00;;;;;;;37.61;39.46;161100.89;1749940;82;21233;-79
2021/06/12 00:49:49;;;;;;;2.95;2.45;;;;;;;37.74;39.31;161135.72;1749965;82;21783;-80
2021/06/12 00:52:21;;;;;;;2.90;2.52;;;;;;;37.57;39.54;161088.84;1749948;82;21724;-81
2021/06/12 00:54:53;;;;;;;4.03;2.60;;;;;;;37.63;39.41;161104.89;1749803;82;21212;-80
2021/06/12 00:57:26;;;;;;;2.77;2.47;;;;;;;37.65;39.33;161111.62;1752495;80;21398;-81
2021/06/12 00:59:58;;;;;;;3.02;2.45;;;;;;;37.61;39.36;161099.58;1749905;82;21266;-81
2021/06/12 01:02:30;;;;;;;4.90;2.45;;;;;;;37.62;39.35;161102.20;1752306;80;21904;-81
2021/06/12 01:05:03;;;;;;;3.90;3.00;;;;;;;37.60;39.35;161096.89;1749750;82;21185;-80
2021/06/12 01:07:35;;;;;;;3.27;2.67;;;;;;;37.61;39.32;161100.89;1749952;82;21260;-80
2021/06/12 01:10:11;;;;;;;2.60;2.33;;;;;;;37.67;39.22;161116.98;1753672;80;21177;-80
2021/06/12 01:13:14;;;;;;;3.02;2.50;;;;;;;37.66;39.21;161114.31;1786606;80;21214;-80
2021/06/12 01:16:00;;;;;;;3.80;2.80;;;;;;;37.62;39.23;161102.20;1786484;80;21764;-83
2021/06/12 01:22:49;;;;;;;2.92;2.47;;;;;;;37.60;39.22;161096.89;1786123;80;21867;-84
2021/06/12 01:25:32;;;;;;;4.42;2.50;;;;;;;37.62;39.16;161102.20;1783838;80;21360;-83
2021/06/12 01:28:38;;;;;;;3.30;2.80;;;;;;;37.59;39.15;161094.20;1786359;79;21485;-83
2021/06/12 01:31:10;;;;;;;3.77;2.40;;;;;;;37.56;39.14;161086.16;1786585;80;21744;-83
2021/06/12 01:33:43;;;;;;;4.75;2.62;;;;;;;37.54;39.14;161080.80;1784188;80;21422;-83
2021/06/12 01:36:16;;;;;;;4.08;2.80;;;;;;;37.47;39.17;161062.06;1768740;81;21185;-83
2021/06/12 01:38:51;;;;;;;3.22;2.50;;;;;;;37.37;39.25;161036.61;1765638;80;21224;-82
2021/06/12 01:41:23;;;;;;;4.80;2.30;;;;;;;37.32;39.32;161021.83;1749801;82;21193;-82
2021/06/12 01:43:56;;;;;;;3.37;2.45;;;;;;;37.31;39.32;161019.16;1749985;82;21740;-82
2021/06/12 01:46:28;;;;;;;9.35;3.12;;;;;;;37.25;39.34;161003.09;1749902;82;21225;-82
2021/06/12 01:49:01;;;;;;;4.30;2.98;;;;;;;37.22;39.35;160995.06;1749849;82;21236;-82
2021/06/12 01:51:34;;;;;;;2.80;2.40;;;;;;;37.20;39.36;160991.06;1749878;82;21387;-82
2021/06/12 01:54:06;;;;;;;2.67;2.47;;;;;;;37.20;39.32;160991.06;1752415;80;21193;-82
2021/06/12 01:56:39;;;;;;;3.15;2.75;;;;;;;37.14;39.34;160974.97;1749929;82;21224;-82
2021/06/12 01:59:12;;;;;;;3.60;2.55;;;;;;;37.13;39.34;160970.97;1723419;82;21754;-83
2021/06/12 02:01:48;;;;;;;3.55;3.05;;;;;;;37.09;39.38;160960.23;1749809;82;21281;-83
2021/06/12 02:04:19;;;;;;;3.35;2.40;;;;;;;37.04;39.45;160946.83;1749820;82;21304;-82
2021/06/12 02:06:52;;;;;;;2.42;2.17;;;;;;;37.37;39.05;161036.61;1727921;80;21252;-82
2021/06/12 02:09:24;;;;;;;3.27;2.60;;;;;;;37.11;39.25;160965.59;1786029;80;21305;-83
2021/06/12 02:11:58;;;;;;;2.42;2.22;;;;;;;37.05;39.33;160949.50;1786514;80;21356;-83
2021/06/12 02:14:31;;;;;;;3.55;2.75;;;;;;;37.03;39.34;160945.52;1786547;79;21376;-83
2021/06/12 02:17:04;;;;;;;3.50;2.37;;;;;;;37.01;39.35;160938.83;1786538;80;21324;-83
2021/06/12 02:19:38;;;;;;;4.00;2.70;;;;;;;37.01;39.35;160938.83;1786543;80;21363;-83
2021/06/12 02:22:10;;;;;;;6.08;2.62;;;;;;;36.91;39.38;160910.70;1783882;80;21848;-83
2021/06/12 02:24:42;;;;;;;2.92;2.60;;;;;;;36.83;39.48;160889.25;1786555;80;21706;-82
2021/06/12 02:27:15;;;;;;;3.15;2.70;;;;;;;36.93;39.35;160917.37;1762643;81;21927;-83
2021/06/12 02:29:47;;;;;;;3.80;2.50;;;;;;;36.85;39.48;160894.61;1772811;81;21352;-83
2021/06/12 02:32:20;;;;;;;3.17;2.85;;;;;;;36.79;39.52;160879.87;1772914;81;21749;-83
2021/06/12 02:34:52;;;;;;;3.87;2.47;;;;;;;36.74;39.54;160866.48;1758001;81;21868;-83
2021/06/12 02:37:24;;;;;;;2.60;2.40;;;;;;;36.73;39.55;160862.48;1738524;81;21360;-83
2021/06/12 02:39:57;;;;;;;3.83;2.75;;;;;;;37.13;39.03;160970.97;1736120;82;21329;-83
2021/06/12 02:42:29;;;;;;;3.25;2.60;;;;;;;36.81;39.37;160883.89;1736153;82;21321;-83
2021/06/12 02:45:07;;;;;;;2.67;2.47;;;;;;;36.88;39.35;160902.59;1715797;82;21507;-83
2021/06/12 02:47:46;;;;;;;4.08;2.50;;;;;;;36.87;39.38;160901.28;1753834;81;21305;-82
2021/06/12 02:50:20;;;;;;;2.80;2.50;;;;;;;36.61;39.65;160831.67;1737968;82;21206;-83
2021/06/12 02:52:53;;;;;;;3.05;2.60;;;;;;;36.56;39.79;160816.95;1722374;82;21207;-83
2021/06/12 02:55:26;;;;;;;5.15;2.52;;;;;;;36.56;39.82;160818.31;1772703;81;21860;-84
2021/06/12 02:57:59;;;;;;;4.50;2.83;;;;;;;36.58;39.90;160823.62;1762195;81;21722;-83
2021/06/12 03:00:31;;;;;;;2.90;2.50;;;;;;;36.86;39.55;160897.28;1770193;81;21919;-83
2021/06/12 03:03:05;;;;;;;2.50;2.30;;;;;;;36.93;39.45;160916.06;1772698;81;21416;-83
2021/06/12 03:05:38;;;;;;;2.75;2.30;;;;;;;37.00;39.35;160936.16;1772828;81;21242;-82
2021/06/12 03:08:12;;;;;;;4.03;2.65;;;;;;;36.87;39.46;160899.92;1772767;81;21369;-83
2021/06/12 03:10:46;;;;;;;3.25;2.70;;;;;;;36.79;39.65;160879.87;1772685;80;21722;-84
2021/06/12 03:13:22;;;;;;;2.83;2.47;;;;;;;36.76;39.74;160871.84;1772848;81;21357;-83
2021/06/12 03:16:04;;;;;;;2.80;2.58;;;;;;;37.11;39.34;160966.91;1770155;81;21199;-83
2021/06/12 03:18:33;;;;;;;3.72;2.72;;;;;;;37.21;39.25;160992.37;1772667;81;21864;-84
2021/06/12 03:21:06;;;;;;;4.22;2.62;;;;;;;37.05;39.41;160949.50;1772793;81;21781;-83
2021/06/12 03:23:38;;;;;;;3.12;2.83;;;;;;;36.95;39.58;160922.75;1772735;81;21207;-84
2021/06/12 03:26:13;;;;;;;3.83;2.70;;;;;;;36.95;39.60;160922.75;1772708;81;21357;-82
2021/06/12 03:28:45;;;;;;;3.22;2.85;;;;;;;37.02;39.56;160941.52;1770055;81;21179;-83
2021/06/12 03:31:19;;;;;;;2.70;2.50;;;;;;;37.01;39.61;160938.83;1772608;80;21658;-84
2021/06/12 03:33:52;;;;;;;3.20;2.77;;;;;;;37.04;39.60;160946.83;1770057;81;21264;-83
2021/06/12 03:36:26;;;;;;;3.10;2.80;;;;;;;36.91;39.77;160910.70;1757701;81;22058;-83
2021/06/12 03:38:59;;;;;;;3.65;2.98;;;;;;;36.80;39.95;160882.56;1757654;80;21206;-82
2021/06/12 03:41:31;;;;;;;3.30;2.98;;;;;;;36.81;40.00;160885.20;1757560;81;21395;-84
2021/06/12 03:44:05;;;;;;;3.35;3.05;;;;;;;36.78;40.08;160875.84;1743583;81;21292;-84
2021/06/12 03:46:37;;;;;;;4.20;2.40;;;;;;;36.89;40.05;160905.28;1736244;82;21364;-84
2021/06/12 03:49:11;;;;;;;3.20;2.80;;;;;;;36.94;39.99;160920.06;1736192;82;21376;-84
2021/06/12 03:51:43;;;;;;;3.37;2.90;;;;;;;36.94;40.01;160920.06;1736088;82;21407;-84
2021/06/12 03:54:16;;;;;;;4.20;3.17;;;;;;;36.98;40.01;160929.47;1736321;82;21765;-83
2021/06/12 03:56:48;;;;;;;3.87;2.75;;;;;;;37.05;39.97;160949.50;1738700;81;21363;-83
2021/06/12 03:59:21;;;;;;;3.55;3.00;;;;;;;37.09;39.91;160961.56;1736179;82;21190;-83
2021/06/12 04:01:55;;;;;;;3.62;2.92;;;;;;;37.16;39.88;160980.33;1736204;82;21389;-83
2021/06/12 04:04:27;;;;;;;3.12;2.52;;;;;;;37.13;39.91;160972.28;1736156;82;21432;-83
2021/06/12 04:06:59;;;;;;;3.52;3.08;;;;;;;37.13;39.93;160972.28;1748001;81;21404;-83
2021/06/12 04:09:32;;;;;;;4.65;3.20;;;;;;;37.19;39.92;160988.37;1743765;81;21281;-83
2021/06/12 04:12:05;;;;;;;6.03;3.30;;;;;;;37.23;39.88;160999.06;1736254;82;21367;-83
2021/06/12 04:14:38;;;;;;;4.40;3.22;;;;;;;37.25;39.88;161003.09;1736219;82;21387;-83
2021/06/12 04:17:11;;;;;;;3.50;3.20;;;;;;;37.34;39.80;161027.19;1736096;82;21388;-82
2021/06/12 04:19:44;;;;;;;5.37;3.08;;;;;;;37.38;39.80;161039.28;1736258;82;21571;-84
2021/06/12 04:22:16;;;;;;;3.72;3.27;;;;;;;37.47;39.72;161063.38;1751566;81;21336;-84
2021/06/12 04:24:48;;;;;;;3.58;3.15;;;;;;;37.49;39.71;161067.44;1772922;81;21195;-83
2021/06/12 04:27:20;;;;;;;3.75;3.42;;;;;;;37.43;39.82;161051.34;1772778;81;21772;-83
2021/06/12 04:29:53;;;;;;;3.90;3.10;;;;;;;37.38;39.89;161037.97;1772833;80;21202;-82
2021/06/12 04:32:25;;;;;;;6.12;3.35;;;;;;;37.39;39.96;161040.59;1772848;81;21864;-83
2021/06/12 04:34:58;;;;;;;5.47;3.45;;;;;;;37.33;40.05;161025.83;1763022;81;21705;-83
2021/06/12 04:37:31;;;;;;;5.92;3.17;;;;;;;37.36;40.10;161032.61;1747824;81;21222;-82
2021/06/12 04:40:04;;;;;;;4.17;3.45;;;;;;;37.41;40.08;161045.97;1736145;82;21194;-83
2021/06/12 04:42:37;;;;;;;4.15;3.42;;;;;;;37.44;40.06;161055.33;1736241;82;21202;-83
2021/06/12 04:45:09;;;;;;;4.00;3.52;;;;;;;37.49;40.02;161068.75;1736303;82;21179;-83
2021/06/12 04:47:42;;;;;;;4.40;3.25;;;;;;;37.49;40.05;161068.75;1736329;82;21832;-82
2021/06/12 04:50:14;;;;;;;4.47;3.25;;;;;;;37.52;40.05;161076.80;1738571;81;21924;-82
2021/06/12 04:52:46;;;;;;;4.22;3.35;;;;;;;37.53;40.08;161078.11;1739984;81;21359;-83
2021/06/12 04:55:18;;;;;;;5.65;4.08;;;;;;;37.54;40.10;161080.80;1763836;81;21147;-82
2021/06/12 04:57:51;;;;;;;5.40;3.45;;;;;;;37.66;39.96;161114.31;1772868;81;21186;-82
2021/06/12 05:00:24;;;;;;;5.58;3.52;;;;;;;37.68;39.94;161118.30;1771794;81;21329;-82
2021/06/12 05:03:12;;;;;;;6.62;3.72;;;;;;;37.83;39.84;161158.56;1763368;80;21428;-81
2021/06/12 05:06:11;;;;;;;3.65;3.22;;;;;;;37.95;39.70;161190.70;1749538;81;21238;-80
2021/06/12 05:08:45;;;;;;;5.60;4.00;;;;;;;37.97;39.67;161196.02;1752373;79;21372;-82
2021/06/12 05:11:18;;;;;;;6.35;3.58;;;;;;;37.90;39.77;161177.28;1751029;79;21750;-81
2021/06/12 05:13:53;;;;;;;5.10;3.45;;;;;;;37.88;39.83;161171.92;1751118;79;21194;-80
2021/06/12 05:16:27;;;;;;;8.20;4.00;;;;;;;37.93;39.84;161186.66;1740755;81;21349;-81
2021/06/12 05:19:08;;;;;;;4.50;3.42;;;;;;;37.93;39.83;161186.66;1749303;81;21856;-80
2021/06/12 05:21:48;;;;;;;7.08;3.77;;;;;;;37.98;39.78;161200.06;1762890;79;21203;-79
2021/06/12 05:24:21;;;;;;;5.17;3.62;;;;;;;37.94;39.87;161188.02;1750870;79;21363;-80
2021/06/12 05:26:57;;;;;;;4.58;3.72;;;;;;;37.95;39.98;161192.02;1744135;81;21804;-81
2021/06/12 05:29:33;;;;;;;5.62;3.62;;;;;;;38.04;39.91;161217.50;1751840;80;21178;-82
2021/06/12 05:32:09;;;;;;;5.95;3.50;;;;;;;38.06;39.96;161221.50;1758528;80;21551;-82
2021/06/12 05:34:43;;;;;;;3.90;3.40;;;;;;;38.20;39.76;161260.33;1758763;79;21584;-82
2021/06/12 05:37:19;;;;;;;3.80;3.40;;;;;;;38.14;39.91;161242.91;1758940;80;21823;-81
2021/06/12 05:39:56;;;;;;;6.42;4.10;;;;;;;38.15;40.02;161245.59;1767001;79;21308;-79
2021/06/12 05:42:35;;;;;;;4.55;3.65;;;;;;;38.13;40.26;161241.59;1758518;80;21328;-81
2021/06/12 05:45:12;;;;;;;4.85;3.67;;;;;;;38.24;40.18;161271.12;1765096;79;22201;-80
2021/06/12 05:47:45;;;;;;;4.50;3.37;;;;;;;38.31;40.15;161288.53;1764478;79;21229;-81
2021/06/12 05:50:17;;;;;;;4.97;4.25;;;;;;;38.37;40.25;161304.59;1761302;80;21190;-81
2021/06/12 05:52:51;;;;;;;5.35;3.47;;;;;;;38.41;40.25;161316.70;1759514;80;21210;-79
2021/06/12 05:55:27;;;;;;;3.90;3.50;;;;;;;38.17;40.66;161252.33;1758458;80;21221;-80
2021/06/12 05:58:00;;;;;;;4.10;3.37;;;;;;;38.27;40.65;161277.81;1758660;79;21230;-83
2021/06/12 06:00:34;;;;;;;6.08;3.90;;;;;;;38.33;40.60;161295.22;1759438;80;21935;-80
2021/06/12 06:03:09;;;;;;;4.83;3.40;;;;;;;38.29;40.71;161283.17;1767584;80;21443;-82
2021/06/12 06:05:42;;;;;;;4.10;3.45;;;;;;;38.32;40.69;161291.22;1765498;80;21221;-82
2021/06/12 06:08:16;;;;;;;5.22;3.65;;;;;;;38.33;40.69;161293.91;1762042;80;21206;-78
2021/06/12 06:10:52;;;;;;;6.03;3.70;;;;;;;38.37;40.69;161305.97;1761633;80;21387;-81
2021/06/12 06:13:31;;;;;;;3.87;3.33;;;;;;;38.64;40.40;161376.97;1782102;80;21360;-81
2021/06/12 06:16:05;;;;;;;4.37;3.22;;;;;;;38.68;40.37;161389.08;1760237;80;21712;-79
2021/06/12 06:18:39;;;;;;;4.35;3.40;;;;;;;38.83;40.20;161429.31;1760608;80;21503;-79
2021/06/12 06:21:14;;;;;;;4.20;3.50;;;;;;;38.95;40.04;161460.16;1761365;79;21166;-78
2021/06/12 06:23:49;;;;;;;5.28;3.70;;;;;;;39.01;39.98;161478.91;1759975;79;21233;-80
2021/06/12 06:26:23;;;;;;;4.40;2.72;;;;;;;38.99;40.01;161473.53;1757807;80;21288;-78
2021/06/12 06:28:58;;;;;;;3.92;3.17;;;;;;;38.97;40.10;161468.16;1763888;80;22390;-79
2021/06/12 06:31:34;;;;;;;4.70;3.55;;;;;;;39.07;40.02;161493.64;1758553;80;21229;-80
2021/06/12 06:34:09;;;;;;;3.77;2.95;;;;;;;39.03;40.07;161482.91;1756760;80;21337;-77
2021/06/12 06:36:43;;;;;;;4.35;3.08;;;;;;;39.12;40.02;161507.13;1768202;79;21222;-77
2021/06/12 06:39:17;;;;;;;2.58;2.37;;;;;;;38.84;40.41;161432.00;1758141;80;21741;-75
2021/06/12 06:41:50;;;;;;;2.90;2.30;;;;;;;39.05;40.24;161489.64;1759832;80;21328;-78
2021/06/12 06:44:24;;;;;;;3.47;2.37;;;;;;;39.16;40.16;161519.19;1756777;80;21324;-78
2021/06/12 06:46:57;;;;;;;3.00;2.60;;;;;;;39.15;40.17;161515.12;1762012;80;21387;-77
2021/06/12 06:49:31;;;;;;;4.87;2.75;;;;;;;39.19;40.21;161525.88;1757580;79;21226;-76
2021/06/12 06:52:05;;;;;;;3.05;2.52;;;;;;;39.26;40.13;161546.00;1758135;80;21336;-76
2021/06/12 06:54:39;;;;;;;4.40;2.40;;;;;;;39.36;40.03;161571.44;1760909;80;21285;-75
2021/06/12 06:57:13;;;;;;;2.58;2.37;;;;;;;39.47;39.96;161602.30;1762249;80;21202;-77
2021/06/12 06:59:48;;;;;;;4.92;2.40;;;;;;;39.49;39.91;161607.67;1756262;80;22223;-78
2021/06/12 07:02:22;;;;;;;2.90;2.60;;;;;;;39.56;39.93;161626.47;1763311;80;21345;-78
2021/06/12 07:04:56;;;;;;;3.60;2.60;;;;;;;39.55;39.98;161623.78;1761630;79;21371;-78
2021/06/12 07:07:32;;;;;;;2.98;2.42;;;;;;;39.61;39.94;161639.91;1765497;80;21859;-80
2021/06/12 07:10:12;;;;;;;2.98;2.40;;;;;;;39.57;40.08;161629.16;1763766;79;21245;-80
2021/06/12 07:12:46;;;;;;;2.20;2.00;;;;;;;39.73;39.93;161672.09;1766024;79;21368;-80
2021/06/12 07:15:22;;;;;;;2.77;2.30;;;;;;;39.76;39.89;161678.78;1759649;79;21203;-80
2021/06/12 07:17:58;;;;;;;2.22;2.00;;;;;;;39.90;39.79;161717.67;1766239;79;21386;-77
2021/06/12 07:20:34;;;;;;;3.62;2.50;;;;;;;39.84;39.87;161701.59;1762046;79;21287;-77
2021/06/12 07:23:10;;;;;;;2.27;2.08;;;;;;;39.90;39.88;161716.34;1770437;80;21843;-77
2021/06/12 07:25:46;;;;;;;2.30;2.10;;;;;;;39.88;39.97;161712.30;1759250;80;21475;-78
2021/06/12 07:28:21;;;;;;;2.10;1.90;;;;;;;39.90;40.00;161716.34;1756391;80;21236;-77
2021/06/12 07:30:55;;;;;;;2.55;2.30;;;;;;;39.93;40.02;161724.47;1768936;79;21234;-77
2021/06/12 07:33:30;;;;;;;2.47;2.25;;;;;;;39.91;40.11;161720.36;1761198;79;22367;-77
2021/06/12 07:36:04;;;;;;;3.87;2.47;;;;;;;40.03;40.03;161753.97;1763724;80;21234;-78
2021/06/12 07:38:39;;;;;;;2.52;2.08;;;;;;;40.08;40.12;161767.34;1760444;79;21251;-78
2021/06/12 07:41:13;;;;;;;6.15;2.40;;;;;;;40.21;39.95;161800.92;1754419;80;21245;-81
2021/06/12 07:43:46;;;;;;;2.72;2.00;;;;;;;40.20;40.01;161799.55;1755485;82;21229;-81
2021/06/12 07:46:19;;;;;;;3.85;2.17;;;;;;;40.24;39.99;161808.94;1755238;82;21233;-83
2021/06/12 07:48:51;;;;;;;2.30;2.10;;;;;;;40.27;40.05;161817.00;1755229;82;21244;-81
2021/06/12 07:51:24;;;;;;;3.67;2.20;;;;;;;40.31;40.09;161829.06;1766950;80;21260;-81
2021/06/12 07:53:56;;;;;;;2.58;2.33;;;;;;;40.41;40.03;161854.63;1786570;80;21384;-81
2021/06/12 07:56:29;;;;;;;2.60;1.87;;;;;;;40.44;40.04;161862.69;1786506;80;21364;-81
2021/06/12 07:59:01;;;;;;;2.85;2.12;;;;;;;40.48;40.08;161874.75;1786456;80;21332;-81
2021/06/12 08:01:34;;;;;;;2.00;1.87;;;;;;;40.52;40.12;161884.13;1786518;80;21344;-80
2021/06/12 08:04:07;;;;;;;2.75;2.12;;;;;;;40.57;40.11;161898.91;1786264;80;21194;-80
2021/06/12 08:06:39;;;;;;;2.20;2.00;;;;;;;40.62;40.08;161912.34;1786455;80;21122;-81
2021/06/12 08:09:11;;;;;;;2.22;1.50;;;;;;;40.64;40.09;161917.66;1786472;80;21214;-81
2021/06/12 08:11:45;;;;;;;3.15;2.12;;;;;;;40.70;40.08;161932.41;1786549;80;21336;-81
2021/06/12 08:14:17;;;;;;;2.12;1.80;;;;;;;40.72;40.05;161939.16;1786300;80;21241;-81
2021/06/12 08:16:50;;;;;;;2.17;1.70;;;;;;;40.87;39.86;161979.44;1786325;80;21891;-79
2021/06/12 08:19:23;;;;;;;3.17;2.00;;;;;;;40.94;39.75;161998.27;1786561;80;21411;-81
2021/06/12 08:21:55;;;;;;;2.45;1.90;;;;;;;40.97;39.74;162006.33;1786642;80;21353;-80
2021/06/12 08:24:29;;;;;;;2.02;1.67;;;;;;;41.01;39.62;162017.03;1786642;80;21256;-81
2021/06/12 08:27:01;;;;;;;3.05;1.70;;;;;;;41.14;39.48;162053.31;1786595;80;21820;-81
2021/06/12 08:29:34;;;;;;;1.72;1.62;;;;;;;41.22;39.36;162073.45;1786464;80;21222;-81
2021/06/12 08:32:07;;;;;;;2.45;1.50;;;;;;;41.15;39.46;162054.69;1786503;80;21314;-81
2021/06/12 08:34:39;;;;;;;2.02;1.80;;;;;;;41.28;39.33;162089.58;1786518;80;21669;-81
2021/06/12 08:37:11;;;;;;;2.92;1.72;;;;;;;41.34;39.22;162107.05;1786433;80;21621;-81
2021/06/12 08:39:44;;;;;;;2.17;1.80;;;;;;;41.37;39.22;162113.73;1786558;80;21848;-81
2021/06/12 08:42:16;;;;;;;2.45;1.70;;;;;;;41.32;39.26;162101.66;1786272;80;21803;-81
2021/06/12 08:44:49;;;;;;;2.05;1.70;;;;;;;41.29;39.25;162092.28;1786603;80;21261;-81
2021/06/12 08:47:21;;;;;;;2.52;1.75;;;;;;;41.43;39.12;162131.19;1786442;80;21348;-81
2021/06/12 08:49:54;;;;;;;1.85;1.75;;;;;;;41.44;39.11;162133.88;1786426;80;21345;-81
2021/06/12 08:52:26;;;;;;;1.90;1.80;;;;;;;41.52;38.95;162155.34;1786531;80;21368;-81
2021/06/12 08:54:59;;;;;;;4.05;2.00;;;;;;;41.53;38.88;162158.03;1785450;80;21147;-81
2021/06/12 08:57:31;;;;;;;2.22;1.72;;;;;;;41.66;38.74;162193.00;1769252;80;21693;-81
2021/06/12 09:00:07;;;;;;;1.70;1.60;;;;;;;41.80;38.61;162229.23;1786148;79;21162;-81
2021/06/12 09:03:15;;;;;;;3.33;1.70;;;;;;;41.86;38.45;162245.37;1782484;80;21364;-81
2021/06/12 09:06:01;;;;;;;1.80;1.60;;;;;;;41.89;38.29;162256.16;1786403;80;21301;-80
2021/06/12 09:08:36;;;;;;;1.60;1.50;;;;;;;41.79;38.17;162227.92;1786492;80;21608;-80
2021/06/12 09:11:10;;;;;;;1.60;1.50;;;;;;;41.86;38.09;162245.37;1786487;80;21375;-81
2021/06/12 09:14:01;;;;;;;1.65;1.40;;;;;;;41.88;37.99;162253.45;1750660;80;21351;-81
2021/06/12 09:16:43;;;;;;;1.82;1.60;;;;;;;41.88;37.99;162253.45;1763921;80;21308;-80
2021/06/12 09:19:25;;;;;;;1.90;1.55;;;;;;;42.04;37.82;162296.44;1786650;80;21337;-81
2021/06/12 09:22:00;;;;;;;1.85;1.57;;;;;;;42.21;37.58;162342.14;1786756;80;21281;-81
2021/06/12 09:24:41;;;;;;;8.68;2.05;;;;;;;42.25;37.37;162352.84;1785265;80;21147;-81
2021/06/12 09:27:17;;;;;;;2.35;1.87;;;;;;;42.35;37.38;162379.81;1782297;80;21387;-81
2021/06/12 09:29:51;;;;;;;1.70;1.60;;;;;;;42.43;37.34;162399.92;1787198;80;21407;-81
2021/06/12 09:32:26;;;;;;;2.90;1.60;;;;;;;42.46;37.37;162409.36;1786486;80;21324;-80
2021/06/12 09:35:08;;;;;;;1.75;1.42;;;;;;;42.63;37.12;162455.02;1764274;80;21333;-82
2021/06/12 09:37:40;;;;;;;1.62;1.52;;;;;;;42.73;37.09;162481.92;1777582;80;21210;-82
2021/06/12 09:40:15;;;;;;;2.75;1.70;;;;;;;42.83;36.93;162508.80;1786708;80;22428;-82
2021/06/12 09:42:54;;;;;;;1.87;1.57;;;;;;;42.86;36.90;162515.55;1767160;80;21310;-82
2021/06/12 09:45:36;;;;;;;1.92;1.60;;;;;;;42.89;36.85;162524.94;1719656;83;21176;-80
2021/06/12 09:48:15;;;;;;;2.92;1.92;;;;;;;43.04;36.63;162566.59;1690871;85;21209;-80
2021/06/12 09:50:50;;;;;;;2.52;1.57;;;;;;;43.04;36.63;162566.59;1694882;84;21366;-81
2021/06/12 09:53:37;;;;;;;2.12;1.65;;;;;;;43.17;36.49;162601.59;1692444;82;21741;-78
2021/06/12 09:55:57;;;;;;;1.90;1.70;;;;;;;43.30;36.16;162636.55;1717720;83;21185;-79
2021/06/12 09:58:32;;;;;;;1.62;1.52;;;;;;;43.33;35.77;162644.63;1670663;83;21232;-79
2021/06/12 10:01:10;;;;;;;2.00;1.60;;;;;;;43.33;35.77;162644.63;1707800;82;21748;-80
2021/06/12 10:03:43;;;;;;;2.22;1.70;;;;;;;43.41;36.02;162664.73;1713223;82;21221;-79
2021/06/12 10:06:25;;;;;;;2.27;1.62;;;;;;;43.45;36.13;162675.50;1717605;83;21463;-79
2021/06/12 10:08:54;;;;;;;1.67;1.52;;;;;;;43.45;36.13;162675.50;1701474;84;21345;-79
2021/06/12 10:11:30;;;;;;;2.37;1.80;;;;;;;43.48;36.10;162684.91;1708362;83;21747;-78
2021/06/12 10:14:01;;;;;;;3.42;2.15;;;;;;;43.52;36.03;162695.72;1701453;83;21287;-79
2021/06/12 10:16:41;;;;;;;3.60;1.75;;;;;;;43.59;35.87;162713.22;1721735;83;21274;-78
2021/06/12 10:19:19;;;;;;;3.47;1.90;;;;;;;43.66;35.65;162732.00;1735009;82;21658;-78
2021/06/12 10:21:51;;;;;;;2.37;1.80;;;;;;;43.66;35.67;162733.37;1713677;83;21270;-78
2021/06/12 10:24:23;;;;;;;2.25;1.67;;;;;;;43.71;35.78;162746.80;1739048;82;21331;-78
2021/06/12 10:26:56;;;;;;;2.45;1.80;;;;;;;43.75;35.67;162757.56;1699394;83;21342;-78
2021/06/12 10:29:28;;;;;;;2.37;2.02;;;;;;;43.80;35.65;162769.66;1730648;83;21369;-78
2021/06/12 10:32:01;;;;;;;2.10;1.80;;;;;;;43.76;35.73;162758.89;1727452;83;21392;-78
2021/06/12 10:34:33;;;;;;;2.47;1.70;;;;;;;43.76;35.73;162760.25;1687931;84;21194;-78
2021/06/12 10:37:07;;;;;;;1.85;1.75;;;;;;;43.81;35.70;162772.36;1738282;82;21209;-78
2021/06/12 10:39:42;;;;;;;3.50;1.80;;;;;;;43.83;35.67;162779.06;1738781;82;21406;-78
2021/06/12 10:42:20;;;;;;;1.92;1.80;;;;;;;43.86;35.65;162788.52;1735301;82;21268;-78
2021/06/12 10:44:54;;;;;;;1.85;1.65;;;;;;;43.93;35.45;162807.38;1687223;83;21359;-79
2021/06/12 10:47:49;;;;;;;2.92;1.98;;;;;;;43.76;35.54;162760.25;1688671;85;21214;-79
2021/06/12 10:50:33;;;;;;;2.10;1.70;;;;;;;43.80;35.49;162769.66;1684193;83;21653;-78
2021/06/12 10:53:34;;;;;;;3.05;1.67;;;;;;;43.86;35.45;162788.52;1708321;84;21796;-78
2021/06/12 10:56:08;;;;;;;2.60;2.05;;;;;;;43.85;35.51;162785.81;1708257;84;21245;-78
2021/06/12 10:58:44;;;;;;;2.02;1.82;;;;;;;43.93;35.49;162807.38;1716160;82;21423;-77
2021/06/12 11:01:23;;;;;;;2.08;1.87;;;;;;;44.04;35.36;162836.94;1693074;83;21195;-78
2021/06/12 11:04:12;;;;;;;4.25;1.67;;;;;;;43.96;35.40;162814.08;1700373;83;21230;-77
2021/06/12 11:09:34;;;;;;;2.30;2.10;;;;;;;43.96;35.33;162814.08;1683892;83;21843;-77
2021/06/12 11:12:20;;;;;;;2.40;2.10;;;;;;;43.93;35.30;162807.38;1721611;82;21367;-78
2021/06/12 11:14:59;;;;;;;4.33;2.17;;;;;;;43.86;35.41;162787.14;1724220;83;21195;-79
2021/06/12 11:17:31;;;;;;;3.27;2.30;;;;;;;43.88;35.49;162793.91;1713021;83;21175;-78
2021/06/12 11:20:08;;;;;;;3.00;2.20;;;;;;;43.85;35.58;162784.44;1714420;83;21318;-78
2021/06/12 11:22:57;;;;;;;2.30;2.10;;;;;;;43.77;35.68;162761.58;1688594;85;21388;-78
2021/06/12 11:25:35;;;;;;;2.85;2.15;;;;;;;43.75;35.74;162757.56;1688889;85;21796;-77
2021/06/12 11:28:28;;;;;;;3.05;2.22;;;;;;;43.69;35.82;162741.45;1684200;83;21186;-78
2021/06/12 11:31:30;;;;;;;1.95;1.70;;;;;;;43.66;35.95;162732.00;1688631;85;21332;-78
2021/06/12 11:34:24;;;;;;;2.30;2.00;;;;;;;43.74;36.00;162753.56;1701777;83;21324;-78
2021/06/12 11:37:19;;;;;;;1.87;1.60;;;;;;;43.86;35.99;162787.14;1746787;82;21697;-78
2021/06/12 11:39:55;;;;;;;3.62;1.85;;;;;;;43.82;36.02;162775.05;1720615;83;21198;-78
2021/06/12 11:42:46;;;;;;;2.08;1.80;;;;;;;43.85;36.01;162784.44;1716674;82;21205;-78
2021/06/12 11:45:29;;;;;;;2.52;2.08;;;;;;;43.75;36.08;162756.25;1696682;83;21365;-78
2021/06/12 11:48:20;;;;;;;3.10;2.33;;;;;;;43.69;36.13;162740.09;1710158;83;21353;-78
2021/06/12 11:50:53;;;;;;;2.00;1.90;;;;;;;43.69;36.13;162740.09;1693949;83;21209;-78
2021/06/12 11:53:34;;;;;;;3.12;2.42;;;;;;;43.65;36.16;162730.69;1727488;83;21211;-81
2021/06/12 11:56:07;;;;;;;2.40;2.20;;;;;;;43.63;36.16;162725.30;1735623;82;21340;-80
2021/06/12 11:58:59;;;;;;;2.55;2.35;;;;;;;43.63;36.21;162723.98;1707471;82;21161;-80
2021/06/12 12:01:50;;;;;;;2.87;2.10;;;;;;;43.57;36.27;162709.19;1693868;84;21367;-80
2021/06/12 12:04:22;;;;;;;;;;;;;;;43.51;36.30;162693.03;1699202;82;21815;-80
2021/06/12 12:06:57;;;;;;;2.52;2.22;;;;;;;43.45;36.40;162676.87;1693840;84;20537;-79
2021/06/12 12:09:35;;;;;;;2.55;2.30;;;;;;;43.43;36.39;162671.50;1723098;82;21721;-79